Time;durP1;ratioP1;P1;durP2;ratioP2;P2;SDS_P1;SDS_P2;PMS_P1;PMS_P2;Temp;Humidity;BMP_temperature;BMP_pressure;BME280_temperature;BME280_humidity;BME280_pressure;Samples;Min_cycle;Max_cycle;Signal;HPM_P1;HPM_P2
2023/02/17 00:02:26;;;;;;;13.47;10.00;;;17.80;54.90;;;;;;5051545;28;20467;-81
2023/02/17 00:04:54;;;;;;;11.90;9.57;;;17.80;54.80;;;;;;5044796;28;20460;-81
2023/02/17 00:07:22;;;;;;;12.07;9.03;;;17.80;54.80;;;;;;5053151;28;20451;-79
2023/02/17 00:09:51;;;;;;;13.13;9.13;;;17.80;54.80;;;;;;5041173;28;20473;-81
2023/02/17 00:12:19;;;;;;;10.60;9.10;;;17.90;55.00;;;;;;5044073;28;20475;-81
2023/02/17 00:14:48;;;;;;;11.97;9.03;;;17.80;54.80;;;;;;5042692;28;20454;-82
2023/02/17 00:17:16;;;;;;;12.63;9.57;;;17.90;54.80;;;;;;5044190;28;20451;-82
2023/02/17 00:19:44;;;;;;;15.73;9.10;;;17.80;54.90;;;;;;5043592;28;20450;-81
2023/02/17 00:22:12;;;;;;;9.20;7.37;;;17.90;54.90;;;;;;5040310;28;20485;-82
2023/02/17 00:24:40;;;;;;;13.90;8.63;;;17.90;54.90;;;;;;5044804;28;20458;-82
2023/02/17 00:27:09;;;;;;;10.70;8.30;;;17.90;55.00;;;;;;5036569;28;20539;-82
2023/02/17 00:29:38;;;;;;;10.00;8.07;;;17.90;54.90;;;;;;5040932;28;20455;-82
2023/02/17 00:32:09;;;;;;;12.07;8.10;;;17.90;54.80;;;;;;5048370;28;20976;-82
2023/02/17 00:34:38;;;;;;;9.50;8.30;;;17.90;55.00;;;;;;5039499;28;20443;-82
2023/02/17 00:37:06;;;;;;;10.07;8.60;;;17.90;54.80;;;;;;5045455;28;20467;-82
2023/02/17 00:39:34;;;;;;;9.60;7.80;;;17.90;54.90;;;;;;5044938;28;20829;-83
2023/02/17 00:42:02;;;;;;;10.47;8.57;;;17.90;55.50;;;;;;5042028;28;20491;-83
2023/02/17 00:44:30;;;;;;;11.47;8.10;;;17.90;54.80;;;;;;5052823;28;20446;-83
2023/02/17 00:46:58;;;;;;;10.77;8.73;;;17.90;54.90;;;;;;5052440;28;20454;-81
2023/02/17 00:49:27;;;;;;;8.07;7.13;;;17.90;55.00;;;;;;5050527;28;20447;-83
2023/02/17 00:51:58;;;;;;;9.80;7.93;;;17.90;54.90;;;;;;5045057;28;20481;-82
2023/02/17 00:54:26;;;;;;;7.30;6.60;;;17.90;54.90;;;;;;5050725;28;20530;-83
2023/02/17 00:56:54;;;;;;;10.50;7.80;;;17.90;55.00;;;;;;5044255;28;20477;-81
2023/02/17 00:59:22;;;;;;;9.57;7.83;;;17.90;55.00;;;;;;5049345;28;20453;-82
2023/02/17 01:01:50;;;;;;;8.60;7.07;;;18.00;55.00;;;;;;5046285;28;20442;-82
2023/02/17 01:04:18;;;;;;;7.60;6.77;;;18.00;55.00;;;;;;5046809;28;20546;-81
2023/02/17 01:06:48;;;;;;;9.47;7.20;;;17.90;55.00;;;;;;5043572;28;20473;-82
2023/02/17 01:09:16;;;;;;;7.87;7.07;;;18.00;55.10;;;;;;5047379;28;20541;-82
2023/02/17 01:11:44;;;;;;;10.40;8.30;;;18.00;55.10;;;;;;5048240;28;20474;-80
2023/02/17 01:14:12;;;;;;;9.53;8.30;;;18.00;55.00;;;;;;5048563;28;20545;-82
2023/02/17 01:16:42;;;;;;;8.10;7.07;;;18.00;55.00;;;;;;5045979;28;20468;-81
2023/02/17 01:19:11;;;;;;;8.83;7.97;;;18.00;55.10;;;;;;5040088;28;20447;-83
2023/02/17 01:21:39;;;;;;;10.23;8.20;;;18.00;55.60;;;;;;5043631;28;20445;-82
2023/02/17 01:24:09;;;;;;;9.63;8.10;;;18.00;55.10;;;;;;5054097;28;20485;-82
2023/02/17 01:26:38;;;;;;;10.47;8.83;;;18.00;55.00;;;;;;5054156;28;20466;-82
2023/02/17 01:29:06;;;;;;;10.47;8.50;;;18.00;55.10;;;;;;5048070;28;20455;-82
2023/02/17 01:31:34;;;;;;;9.37;7.70;;;18.00;55.00;;;;;;5050034;28;20477;-82
2023/02/17 01:34:03;;;;;;;10.37;8.23;;;18.00;55.00;;;;;;5052204;28;20561;-82
2023/02/17 01:36:30;;;;;;;12.17;8.60;;;18.00;55.10;;;;;;5049551;28;20446;-83
2023/02/17 01:38:59;;;;;;;10.30;7.90;;;18.00;55.00;;;;;;5051179;28;20522;-82
2023/02/17 01:41:28;;;;;;;10.03;8.03;;;18.00;55.10;;;;;;5054626;28;20458;-82
2023/02/17 01:44:14;;;;;;;9.53;8.20;;;18.00;55.10;;;;;;5047521;28;20471;-82
2023/02/17 01:46:42;;;;;;;10.40;7.97;;;18.00;55.00;;;;;;5053281;28;20447;-83
2023/02/17 01:49:21;;;;;;;8.90;7.97;;;18.00;55.10;;;;;;5051781;28;21017;-82
2023/02/17 01:51:51;;;;;;;10.10;7.63;;;18.10;55.10;;;;;;5044507;28;20534;-82
2023/02/17 01:54:20;;;;;;;10.57;7.80;;;18.00;55.10;;;;;;5051445;28;20500;-82
2023/02/17 01:56:49;;;;;;;8.93;7.80;;;18.00;55.10;;;;;;5058590;28;20493;-82
2023/02/17 01:59:18;;;;;;;7.67;6.87;;;18.00;55.10;;;;;;5052461;28;20446;-82
2023/02/17 02:01:46;;;;;;;8.50;6.70;;;18.00;55.10;;;;;;5050076;28;20486;-82
2023/02/17 02:04:14;;;;;;;8.57;7.23;;;18.00;55.10;;;;;;5052640;28;20482;-82
2023/02/17 02:06:42;;;;;;;9.80;6.97;;;18.00;55.10;;;;;;5054843;28;20452;-82
2023/02/17 02:09:12;;;;;;;10.47;7.00;;;18.10;55.20;;;;;;5048898;28;20455;-82
2023/02/17 02:11:40;;;;;;;7.70;6.77;;;18.10;55.20;;;;;;5053002;28;20605;-82
2023/02/17 02:14:09;;;;;;;8.07;6.63;;;18.10;55.10;;;;;;5042438;28;20475;-82
2023/02/17 02:16:42;;;;;;;7.73;6.40;;;18.10;55.20;;;;;;5050583;28;20486;-82
2023/02/17 02:19:21;;;;;;;8.13;6.93;;;18.10;55.10;;;;;;5049000;28;20515;-82
2023/02/17 02:22:06;;;;;;;8.23;7.33;;;18.10;55.20;;;;;;5048023;28;20455;-82
2023/02/17 02:24:38;;;;;;;7.00;6.30;;;18.10;55.20;;;;;;5047289;28;20455;-83
2023/02/17 02:27:29;;;;;;;7.17;6.47;;;18.10;55.20;;;;;;5048464;28;20487;-82
2023/02/17 02:30:22;;;;;;;7.63;6.53;;;18.10;55.30;;;;;;5036293;28;20451;-82
2023/02/17 02:32:57;;;;;;;16.23;6.57;;;18.10;55.30;;;;;;5048776;28;20470;-82
2023/02/17 02:35:29;;;;;;;6.50;5.90;;;18.10;55.30;;;;;;5050457;28;20461;-83
2023/02/17 02:38:00;;;;;;;6.60;6.00;;;18.10;55.20;;;;;;5053684;28;20463;-82
2023/02/17 02:40:31;;;;;;;7.07;6.37;;;18.10;55.20;;;;;;5052027;28;20458;-81
2023/02/17 02:43:01;;;;;;;6.70;5.90;;;18.10;55.40;;;;;;5052176;28;20472;-84
2023/02/17 02:45:29;;;;;;;8.57;6.20;;;18.10;55.30;;;;;;5044035;28;20448;-82
2023/02/17 02:47:58;;;;;;;6.53;5.90;;;18.10;55.20;;;;;;5043342;28;20440;-82
2023/02/17 02:50:32;;;;;;;6.30;5.70;;;18.10;55.20;;;;;;5047945;28;20520;-83
2023/02/17 02:53:08;;;;;;;6.57;5.97;;;18.10;55.30;;;;;;5049923;28;20478;-83
2023/02/17 02:55:43;;;;;;;6.20;5.70;;;18.10;55.10;;;;;;5048982;28;20505;-82
2023/02/17 02:58:13;;;;;;;6.40;5.80;;;18.10;55.20;;;;;;5052213;28;20818;-82
2023/02/17 03:00:43;;;;;;;6.80;6.20;;;18.10;55.30;;;;;;5042025;28;20459;-82
2023/02/17 03:03:16;;;;;;;7.40;6.30;;;18.10;55.20;;;;;;5051613;28;20520;-82
2023/02/17 03:05:48;;;;;;;6.50;5.90;;;18.10;55.20;;;;;;5047277;28;20455;-82
2023/02/17 03:08:18;;;;;;;6.27;5.60;;;18.10;55.20;;;;;;5056409;28;20458;-82
2023/02/17 03:10:47;;;;;;;5.77;5.20;;;18.10;55.30;;;;;;5049534;28;20466;-83
2023/02/17 03:13:15;;;;;;;6.30;5.70;;;18.10;55.40;;;;;;5038549;28;20476;-82
2023/02/17 03:15:43;;;;;;;6.53;5.80;;;18.10;55.30;;;;;;5045927;28;20455;-82
2023/02/17 03:18:13;;;;;;;5.73;5.23;;;18.10;55.30;;;;;;5048932;28;20448;-82
2023/02/17 03:20:43;;;;;;;6.30;5.70;;;18.10;55.30;;;;;;5046184;28;20451;-82
2023/02/17 03:23:11;;;;;;;5.80;5.20;;;18.10;55.40;;;;;;5043122;28;20469;-83
2023/02/17 03:25:39;;;;;;;5.93;5.40;;;18.10;55.20;;;;;;5047738;28;20450;-82
2023/02/17 03:28:07;;;;;;;6.50;5.90;;;18.10;55.40;;;;;;5051556;28;20462;-81
2023/02/17 03:30:35;;;;;;;6.13;5.53;;;18.10;55.40;;;;;;5049803;28;20430;-81
2023/02/17 03:33:03;;;;;;;5.63;5.10;;;18.10;55.40;;;;;;5045769;28;20485;-80
2023/02/17 03:35:32;;;;;;;5.83;5.30;;;18.10;55.30;;;;;;5048655;28;20447;-82
2023/02/17 03:38:00;;;;;;;7.13;5.40;;;18.10;55.30;;;;;;5050568;28;20451;-83
2023/02/17 03:40:28;;;;;;;5.97;5.47;;;18.10;55.30;;;;;;5049799;28;20525;-83
2023/02/17 03:42:57;;;;;;;6.37;5.77;;;18.10;55.40;;;;;;5048217;28;20466;-82
2023/02/17 03:45:25;;;;;;;5.70;5.20;;;18.10;55.30;;;;;;5047959;28;21022;-82
2023/02/17 03:47:53;;;;;;;6.43;5.83;;;18.10;55.40;;;;;;5051918;28;20971;-82
2023/02/17 03:50:21;;;;;;;6.60;6.00;;;18.10;55.40;;;;;;5041958;28;20447;-82
2023/02/17 03:52:50;;;;;;;5.80;5.20;;;18.10;55.40;;;;;;5049538;28;20480;-82
2023/02/17 03:55:18;;;;;;;6.43;5.83;;;18.10;55.30;;;;;;5046865;28;20461;-82
2023/02/17 03:57:46;;;;;;;6.70;6.10;;;18.20;55.40;;;;;;5051950;28;20442;-82
2023/02/17 04:00:15;;;;;;;7.27;5.97;;;18.20;55.30;;;;;;5050347;28;20454;-83
2023/02/17 04:02:43;;;;;;;6.43;5.83;;;18.10;55.20;;;;;;5049371;28;20473;-83
2023/02/17 04:05:11;;;;;;;6.40;5.80;;;18.10;55.40;;;;;;5044689;28;20467;-82
2023/02/17 04:07:40;;;;;;;6.30;5.60;;;18.20;55.50;;;;;;5038961;28;20542;-82
2023/02/17 04:10:10;;;;;;;6.47;5.80;;;18.10;55.30;;;;;;5048182;28;20823;-83
2023/02/17 04:12:38;;;;;;;7.00;6.40;;;18.20;55.40;;;;;;5045216;28;20505;-81
2023/02/17 04:15:07;;;;;;;7.17;6.30;;;18.10;55.40;;;;;;5051093;28;20457;-83
2023/02/17 04:17:36;;;;;;;6.80;6.10;;;18.10;55.40;;;;;;5048815;28;20494;-83
2023/02/17 04:20:04;;;;;;;7.17;6.47;;;18.10;55.40;;;;;;5054641;28;20455;-82
2023/02/17 04:22:32;;;;;;;7.23;6.20;;;18.10;55.40;;;;;;5050746;28;20467;-82
2023/02/17 04:25:00;;;;;;;6.80;6.10;;;18.20;55.50;;;;;;5044440;28;20462;-81
2023/02/17 04:27:30;;;;;;;6.67;6.07;;;18.20;55.50;;;;;;5046958;28;20474;-82
2023/02/17 04:29:58;;;;;;;6.73;6.13;;;18.20;55.50;;;;;;5046677;28;20467;-82
2023/02/17 04:32:27;;;;;;;6.23;5.63;;;18.20;55.50;;;;;;5041002;28;20503;-82
2023/02/17 04:34:55;;;;;;;6.93;6.27;;;18.20;55.50;;;;;;5038416;28;20447;-83
2023/02/17 04:37:23;;;;;;;6.20;5.70;;;18.20;55.50;;;;;;5049303;28;20462;-82
2023/02/17 04:39:51;;;;;;;6.30;5.70;;;18.20;56.20;;;;;;5048300;28;20451;-82
2023/02/17 04:42:19;;;;;;;7.10;6.40;;;18.20;55.50;;;;;;5042251;28;20474;-82
2023/02/17 04:44:48;;;;;;;6.90;6.30;;;18.20;56.30;;;;;;5048627;28;20454;-83
2023/02/17 04:47:16;;;;;;;6.90;6.20;;;18.20;55.50;;;;;;5048408;28;20450;-83
2023/02/17 04:49:44;;;;;;;6.50;5.90;;;18.20;55.50;;;;;;5043366;28;20454;-83
2023/02/17 04:52:12;;;;;;;7.43;6.23;;;18.20;55.50;;;;;;5047764;28;20471;-83
2023/02/17 04:54:40;;;;;;;7.00;6.30;;;18.20;55.50;;;;;;5045462;28;20457;-83
2023/02/17 04:57:08;;;;;;;6.80;6.20;;;18.20;55.50;;;;;;5049699;28;20496;-83
2023/02/17 04:59:36;;;;;;;6.57;5.97;;;18.20;55.50;;;;;;5054901;28;20458;-82
2023/02/17 05:02:05;;;;;;;7.30;6.60;;;18.20;55.50;;;;;;5047743;28;20439;-83
2023/02/17 05:04:33;;;;;;;6.80;6.10;;;18.20;55.50;;;;;;5044691;28;20531;-83
2023/02/17 05:07:01;;;;;;;6.90;6.20;;;18.20;55.50;;;;;;5045114;28;20541;-82
2023/02/17 05:09:29;;;;;;;7.50;6.10;;;18.20;55.50;;;;;;5051210;28;20466;-81
2023/02/17 05:11:58;;;;;;;7.10;5.87;;;18.20;55.50;;;;;;5055867;28;20482;-83
2023/02/17 05:14:26;;;;;;;8.60;6.30;;;18.20;55.50;;;;;;5055683;28;20533;-83
2023/02/17 05:16:54;;;;;;;6.93;6.30;;;18.20;55.50;;;;;;5044623;28;20538;-83
2023/02/17 05:19:24;;;;;;;7.10;6.40;;;18.20;55.60;;;;;;5053098;28;20459;-83
2023/02/17 05:21:51;;;;;;;6.90;6.17;;;18.20;55.50;;;;;;5047058;28;20450;-82
2023/02/17 05:24:20;;;;;;;7.20;6.03;;;18.20;55.60;;;;;;5047875;28;20447;-82
2023/02/17 05:26:47;;;;;;;7.03;6.10;;;18.20;55.60;;;;;;5046269;28;20470;-83
2023/02/17 05:29:15;;;;;;;7.13;6.43;;;18.20;55.60;;;;;;5050348;28;20449;-83
2023/02/17 05:31:43;;;;;;;6.93;6.23;;;18.20;55.60;;;;;;5042739;28;20451;-83
2023/02/17 05:34:12;;;;;;;7.73;6.90;;;18.20;55.60;;;;;;5050389;28;20562;-83
2023/02/17 05:36:42;;;;;;;6.23;5.70;;;18.20;55.50;;;;;;5040089;28;20854;-83
2023/02/17 05:39:10;;;;;;;7.03;6.30;;;18.20;55.60;;;;;;5049750;28;20460;-84
2023/02/17 05:41:38;;;;;;;7.10;6.40;;;18.20;55.60;;;;;;5052590;28;20558;-83
2023/02/17 05:44:06;;;;;;;7.20;6.50;;;18.20;55.70;;;;;;5050690;28;20477;-83
2023/02/17 05:46:34;;;;;;;8.17;7.00;;;18.20;55.50;;;;;;5051312;28;20446;-84
2023/02/17 05:49:02;;;;;;;6.63;5.97;;;18.20;55.70;;;;;;5047564;28;20505;-83
2023/02/17 05:51:30;;;;;;;7.10;6.47;;;18.20;55.80;;;;;;5048824;28;20457;-81
2023/02/17 05:53:59;;;;;;;7.97;6.40;;;18.20;55.70;;;;;;5041212;28;20501;-82
2023/02/17 05:56:27;;;;;;;6.97;6.27;;;18.20;55.50;;;;;;5045371;28;20490;-81
2023/02/17 05:58:55;;;;;;;10.57;7.13;;;18.20;55.80;;;;;;5044917;28;20462;-82
2023/02/17 06:01:23;;;;;;;6.70;6.03;;;18.20;55.70;;;;;;5051189;28;20454;-82
2023/02/17 06:03:52;;;;;;;7.10;6.20;;;18.20;55.80;;;;;;5052548;28;20471;-81
2023/02/17 06:06:20;;;;;;;7.13;6.43;;;18.20;55.70;;;;;;5039545;28;20458;-82
2023/02/17 06:08:48;;;;;;;7.40;6.67;;;18.20;55.80;;;;;;5040776;28;20455;-82
2023/02/17 06:11:17;;;;;;;7.13;6.37;;;18.20;55.70;;;;;;5046842;28;20530;-82
2023/02/17 06:13:45;;;;;;;7.50;6.67;;;18.20;55.60;;;;;;5055870;28;20561;-82
2023/02/17 06:16:13;;;;;;;7.30;6.27;;;18.20;55.80;;;;;;5038327;28;20831;-82
2023/02/17 06:18:41;;;;;;;6.93;6.20;;;18.20;55.70;;;;;;5050061;28;20508;-83
2023/02/17 06:21:09;;;;;;;6.67;6.07;;;18.20;55.70;;;;;;5041377;28;20461;-82
2023/02/17 06:23:37;;;;;;;7.23;6.07;;;18.20;55.70;;;;;;5048215;28;20489;-83
2023/02/17 06:26:06;;;;;;;7.83;6.47;;;18.20;55.70;;;;;;5049325;28;20477;-83
2023/02/17 06:28:36;;;;;;;9.17;6.63;;;18.20;55.80;;;;;;5046189;28;20492;-83
2023/02/17 06:31:04;;;;;;;9.97;6.67;;;18.20;55.60;;;;;;5048742;28;20525;-83
2023/02/17 06:33:33;;;;;;;8.33;6.60;;;18.20;55.70;;;;;;5050248;28;20475;-83
2023/02/17 06:36:01;;;;;;;8.60;6.93;;;18.20;55.70;;;;;;5048520;28;20450;-83
2023/02/17 06:38:29;;;;;;;6.97;6.37;;;18.20;55.80;;;;;;5049927;28;20462;-83
2023/02/17 06:40:57;;;;;;;7.53;6.77;;;18.20;55.70;;;;;;5046317;28;20477;-83
2023/02/17 06:43:25;;;;;;;7.20;6.50;;;18.20;55.80;;;;;;5048735;28;20475;-82
2023/02/17 06:45:55;;;;;;;7.67;6.43;;;18.20;55.80;;;;;;5051079;28;20451;-81
2023/02/17 06:48:23;;;;;;;7.20;6.50;;;18.20;55.70;;;;;;5046688;28;20450;-81
2023/02/17 06:50:52;;;;;;;7.47;6.60;;;18.10;55.80;;;;;;5049165;28;20894;-82
2023/02/17 06:53:20;;;;;;;8.83;7.10;;;18.20;55.90;;;;;;5056127;28;21035;-82
2023/02/17 06:55:48;;;;;;;8.07;6.90;;;18.20;55.90;;;;;;5062679;28;20498;-84
2023/02/17 06:58:16;;;;;;;7.03;6.10;;;18.20;55.80;;;;;;5067406;28;20444;-83
2023/02/17 07:00:44;;;;;;;7.20;6.40;;;18.10;55.80;;;;;;5067391;28;20462;-83
2023/02/17 07:03:13;;;;;;;8.03;6.37;;;18.20;55.80;;;;;;5073034;28;20480;-81
2023/02/17 07:05:41;;;;;;;7.70;6.27;;;18.10;55.80;;;;;;5070539;28;20517;-83
2023/02/17 07:08:09;;;;;;;7.90;6.60;;;18.10;55.80;;;;;;5067921;28;20450;-82
2023/02/17 07:10:37;;;;;;;7.30;6.33;;;18.10;55.90;;;;;;5070733;28;20458;-85
2023/02/17 07:13:06;;;;;;;7.00;5.90;;;18.20;55.90;;;;;;5067818;28;20515;-84
2023/02/17 07:15:34;;;;;;;6.90;5.93;;;18.10;55.90;;;;;;5071688;28;20562;-83
2023/02/17 07:18:02;;;;;;;7.30;6.07;;;18.10;55.80;;;;;;5066357;28;20511;-85
2023/02/17 07:20:31;;;;;;;6.57;5.80;;;18.20;56.00;;;;;;5064928;28;20506;-84
2023/02/17 07:23:00;;;;;;;6.57;5.80;;;18.20;56.00;;;;;;5067104;28;20530;-85
2023/02/17 07:25:28;;;;;;;7.07;5.53;;;18.10;55.90;;;;;;5064143;28;20450;-85
2023/02/17 07:27:56;;;;;;;8.53;5.87;;;18.20;56.10;;;;;;5070057;28;20485;-85
2023/02/17 07:30:24;;;;;;;6.03;5.53;;;18.10;55.90;;;;;;5066445;28;20471;-86
2023/02/17 07:32:52;;;;;;;6.50;5.83;;;18.20;56.00;;;;;;5067251;28;20459;-85
2023/02/17 07:35:20;;;;;;;5.80;5.30;;;18.20;56.00;;;;;;5066853;28;20525;-86
2023/02/17 07:37:50;;;;;;;7.40;5.60;;;18.20;55.80;;;;;;5070039;28;20471;-86
2023/02/17 07:40:19;;;;;;;5.60;5.10;;;18.20;55.80;;;;;;5069040;28;20476;-85
2023/02/17 07:42:47;;;;;;;6.50;5.43;;;18.20;55.90;;;;;;5063600;28;20474;-85
2023/02/17 07:45:15;;;;;;;6.80;5.30;;;18.10;55.90;;;;;;5070151;28;20505;-85
2023/02/17 07:47:43;;;;;;;6.37;5.77;;;18.20;56.00;;;;;;5068745;28;20462;-87
2023/02/17 07:50:11;;;;;;;6.03;5.40;;;18.20;55.90;;;;;;5067247;28;20522;-86
2023/02/17 07:52:39;;;;;;;6.17;5.57;;;18.20;55.90;;;;;;5064056;28;20511;-83
2023/02/17 07:55:08;;;;;;;6.07;5.47;;;18.20;56.00;;;;;;5065818;28;20483;-85
2023/02/17 07:57:36;;;;;;;6.27;5.33;;;18.20;56.10;;;;;;5067573;28;20452;-85
2023/02/17 08:00:05;;;;;;;8.17;5.83;;;18.20;56.00;;;;;;5070176;28;20430;-86
2023/02/17 08:02:33;;;;;;;5.80;5.20;;;18.20;56.00;;;;;;5066805;28;20477;-86
2023/02/17 08:05:01;;;;;;;6.20;5.60;;;18.20;56.10;;;;;;5067992;28;20450;-85
2023/02/17 08:07:29;;;;;;;6.53;5.87;;;18.20;56.20;;;;;;5069127;28;20463;-84
2023/02/17 08:15:32;;;;;;;5.00;4.57;;;18.20;56.10;;;;;;5049220;28;20529;-82
2023/02/17 08:18:00;;;;;;;6.63;5.57;;;18.10;56.10;;;;;;5053769;28;20485;-83
2023/02/17 08:20:28;;;;;;;7.67;5.50;;;18.20;56.10;;;;;;5061116;28;20451;-84
2023/02/17 08:22:56;;;;;;;8.40;5.63;;;18.20;56.10;;;;;;5058006;28;20470;-82
2023/02/17 08:25:24;;;;;;;7.93;6.27;;;18.20;56.20;;;;;;5047726;28;20447;-83
2023/02/17 08:27:54;;;;;;;8.17;6.20;;;18.20;56.20;;;;;;5052376;28;20501;-83
2023/02/17 08:30:21;;;;;;;7.23;5.90;;;18.20;56.10;;;;;;5042086;28;20983;-82
2023/02/17 08:32:50;;;;;;;8.60;6.80;;;18.20;56.70;;;;;;5046973;28;20485;-83
2023/02/17 08:35:21;;;;;;;7.97;6.37;;;18.20;56.20;;;;;;5044450;28;20479;-84
2023/02/17 08:37:49;;;;;;;7.33;5.80;;;18.20;56.10;;;;;;5049794;28;20476;-83
2023/02/17 08:40:17;;;;;;;7.73;6.17;;;18.20;56.20;;;;;;5048459;28;20479;-83
2023/02/17 08:42:45;;;;;;;6.80;6.10;;;18.20;56.20;;;;;;5042623;28;20530;-83
2023/02/17 08:45:15;;;;;;;7.97;6.50;;;18.20;56.20;;;;;;5053429;28;20450;-84
2023/02/17 08:47:50;;;;;;;8.97;6.40;;;18.30;56.20;;;;;;5050126;28;20541;-83
2023/02/17 08:50:18;;;;;;;10.13;7.23;;;18.20;56.10;;;;;;5050932;28;20480;-83
2023/02/17 08:52:47;;;;;;;8.40;6.60;;;18.20;56.20;;;;;;5050497;28;20471;-83
2023/02/17 08:55:17;;;;;;;7.70;6.50;;;18.30;56.20;;;;;;5047710;28;20959;-82
2023/02/17 08:57:45;;;;;;;8.40;6.73;;;18.30;56.30;;;;;;5047699;28;20442;-83
2023/02/17 09:00:18;;;;;;;9.20;7.20;;;18.30;56.30;;;;;;5042810;28;20533;-82
2023/02/17 09:02:46;;;;;;;9.53;6.63;;;18.30;56.30;;;;;;5043034;28;20906;-83
2023/02/17 09:05:15;;;;;;;9.90;7.07;;;18.30;56.30;;;;;;5041768;28;20504;-83
2023/02/17 09:07:43;;;;;;;9.20;6.83;;;18.30;56.30;;;;;;5047030;28;20479;-83
2023/02/17 09:10:11;;;;;;;9.33;6.70;;;18.30;56.20;;;;;;5044856;28;20479;-83
2023/02/17 09:12:40;;;;;;;10.83;7.37;;;18.30;56.20;;;;;;5044259;28;20475;-84
2023/02/17 09:15:27;;;;;;;8.93;6.93;;;18.30;56.30;;;;;;5053487;28;20474;-84
2023/02/17 09:17:55;;;;;;;10.17;7.00;;;18.40;56.30;;;;;;5056126;28;20470;-82
2023/02/17 09:20:23;;;;;;;26.80;15.97;;;18.40;56.30;;;;;;5044148;28;20459;-82
2023/02/17 09:22:52;;;;;;;34.90;19.67;;;17.80;59.80;;;;;;5040022;28;20494;-82
2023/02/17 09:25:20;;;;;;;42.43;20.47;;;15.40;69.70;;;;;;5046716;28;20439;-83
2023/02/17 09:27:48;;;;;;;40.37;20.30;;;14.30;78.50;;;;;;5040825;28;20478;-81
2023/02/17 09:30:17;;;;;;;36.77;19.57;;;13.90;86.30;;;;;;5042077;28;20959;-80
2023/02/17 09:32:45;;;;;;;38.30;21.23;;;13.80;91.80;;;;;;5039143;28;20474;-84
2023/02/17 09:35:14;;;;;;;40.83;19.13;;;13.80;95.10;;;;;;5042332;28;20482;-83
2023/02/17 09:37:42;;;;;;;33.90;17.10;;;14.80;96.60;;;;;;5044238;28;20454;-85
2023/02/17 09:40:15;;;;;;;32.23;17.60;;;15.60;94.40;;;;;;5043986;28;20509;-81
2023/02/17 09:42:44;;;;;;;27.63;15.70;;;16.20;91.70;;;;;;5042864;28;20470;-83
2023/02/17 09:45:14;;;;;;;26.80;16.30;;;16.70;89.30;;;;;;5043273;28;20453;-84
2023/02/17 09:47:44;;;;;;;27.83;16.23;;;17.00;85.90;;;;;;5049031;28;20447;-84
2023/02/17 09:50:15;;;;;;;26.90;15.87;;;17.20;82.60;;;;;;5046114;28;20463;-83
2023/02/17 09:52:47;;;;;;;24.30;15.70;;;17.40;80.40;;;;;;5041526;28;20477;-82
2023/02/17 09:55:16;;;;;;;22.20;14.43;;;17.60;78.40;;;;;;5049122;28;20483;-84
2023/02/17 09:57:49;;;;;;;27.30;15.33;;;17.80;77.10;;;;;;5052689;28;20490;-84
2023/02/17 10:00:19;;;;;;;21.50;13.70;;;17.90;75.50;;;;;;5047825;28;20462;-84
2023/02/17 10:02:52;;;;;;;25.70;13.60;;;18.00;74.40;;;;;;5055805;28;20473;-83
2023/02/17 10:05:22;;;;;;;23.00;13.70;;;18.10;73.40;;;;;;5058278;28;20446;-82
2023/02/17 10:07:51;;;;;;;21.23;13.70;;;18.10;72.40;;;;;;5054063;28;20469;-84
2023/02/17 10:10:21;;;;;;;17.90;13.00;;;18.20;71.80;;;;;;5043515;28;20447;-83
2023/02/17 10:12:50;;;;;;;20.27;12.73;;;18.20;71.00;;;;;;5050619;28;20458;-84
2023/02/17 10:15:20;;;;;;;21.10;12.37;;;18.30;70.50;;;;;;5051740;28;20525;-86
2023/02/17 10:17:53;;;;;;;17.67;11.70;;;18.30;70.00;;;;;;5051336;28;20442;-84
2023/02/17 10:20:23;;;;;;;22.63;11.80;;;18.40;69.50;;;;;;5052408;28;20486;-82
2023/02/17 10:22:53;;;;;;;17.70;11.60;;;18.40;68.90;;;;;;5054502;28;20478;-84
2023/02/17 10:25:24;;;;;;;21.10;11.60;;;18.40;68.60;;;;;;5050178;28;20467;-81
2023/02/17 10:27:55;;;;;;;18.63;12.00;;;18.50;68.30;;;;;;5049115;28;20464;-82
2023/02/17 10:30:29;;;;;;;20.00;11.77;;;18.50;67.80;;;;;;5051405;28;20899;-83
2023/02/17 10:33:02;;;;;;;17.03;10.80;;;18.50;67.60;;;;;;5052126;28;20470;-82
2023/02/17 10:35:57;;;;;;;14.33;10.50;;;18.50;67.20;;;;;;5053074;28;20478;-82
2023/02/17 10:38:34;;;;;;;22.23;10.73;;;18.60;67.00;;;;;;5054196;28;20443;-87
2023/02/17 10:41:02;;;;;;;16.00;10.30;;;18.60;66.60;;;;;;5045579;28;20552;-84
2023/02/17 10:46:31;;;;;;;11.80;8.90;;;18.60;66.30;;;;;;5052902;28;20438;-81
2023/02/17 10:49:01;;;;;;;17.60;9.90;;;18.60;66.20;;;;;;5053401;28;20516;-82
2023/02/17 10:51:29;;;;;;;13.80;9.80;;;18.60;66.10;;;;;;5047125;28;20457;-82
2023/02/17 10:53:59;;;;;;;11.60;9.00;;;18.60;65.80;;;;;;5046849;28;20477;-82
2023/02/17 10:56:32;;;;;;;13.10;9.57;;;18.60;66.40;;;;;;5055859;28;20474;-80
2023/02/17 10:59:05;;;;;;;12.90;9.30;;;18.60;65.50;;;;;;5052719;28;20442;-79
2023/02/17 11:01:33;;;;;;;15.27;8.83;;;18.70;65.50;;;;;;5050846;28;20454;-79
2023/02/17 11:04:04;;;;;;;14.13;9.40;;;18.70;65.30;;;;;;5039244;28;20474;-80
2023/02/17 11:06:36;;;;;;;11.00;8.67;;;18.70;65.20;;;;;;5047795;28;20467;-80
2023/02/17 11:09:11;;;;;;;10.60;8.00;;;18.70;65.20;;;;;;5049786;28;20457;-80
2023/02/17 11:11:39;;;;;;;13.63;8.47;;;18.70;65.00;;;;;;5043835;28;20540;-81
2023/02/17 11:14:12;;;;;;;11.33;8.60;;;18.70;64.90;;;;;;5046049;28;20479;-81
2023/02/17 11:16:41;;;;;;;9.70;7.73;;;18.70;64.60;;;;;;5041537;28;20459;-80
2023/02/17 11:19:21;;;;;;;11.10;7.53;;;18.70;64.70;;;;;;5044682;28;20463;-80
2023/02/17 11:21:50;;;;;;;12.67;8.10;;;18.70;64.40;;;;;;5045569;28;20466;-80
2023/02/17 11:24:19;;;;;;;12.93;8.33;;;18.70;64.50;;;;;;5042248;28;20578;-81
2023/02/17 11:26:55;;;;;;;8.90;7.20;;;18.70;64.30;;;;;;5044277;28;20473;-81
2023/02/17 11:29:23;;;;;;;9.57;7.40;;;18.70;64.10;;;;;;5049043;28;20462;-80
2023/02/17 11:31:55;;;;;;;11.17;7.33;;;18.70;64.10;;;;;;5046978;28;20461;-82
2023/02/17 11:34:27;;;;;;;9.70;6.90;;;18.70;63.90;;;;;;5045024;28;20508;-81
2023/02/17 11:36:59;;;;;;;10.07;7.50;;;18.70;64.00;;;;;;5043187;28;20478;-81
2023/02/17 11:39:30;;;;;;;9.70;7.30;;;18.70;64.00;;;;;;5042633;28;20462;-82
2023/02/17 11:41:58;;;;;;;8.93;7.07;;;18.70;63.90;;;;;;5041123;28;20466;-81
2023/02/17 11:44:27;;;;;;;9.70;7.27;;;18.70;63.80;;;;;;5045309;28;20469;-81
2023/02/17 11:47:02;;;;;;;10.27;6.83;;;18.70;63.80;;;;;;5047281;28;21062;-82
2023/02/17 11:49:42;;;;;;;10.20;6.93;;;18.80;63.80;;;;;;5043261;28;20969;-82
2023/02/17 11:52:16;;;;;;;9.30;6.57;;;18.80;63.80;;;;;;5047433;28;20474;-82
2023/02/17 11:54:51;;;;;;;8.40;5.80;;;18.80;63.70;;;;;;5040502;28;20462;-83
2023/02/17 11:57:28;;;;;;;7.00;5.60;;;18.80;63.70;;;;;;5043368;28;20497;-81
2023/02/17 12:00:04;;;;;;;8.73;6.03;;;18.80;63.60;;;;;;5043526;28;20463;-82
2023/02/17 12:02:44;;;;;;;9.03;5.90;;;18.80;63.70;;;;;;5048436;28;20506;-81
2023/02/17 12:05:20;;;;;;;11.30;6.13;;;18.80;63.60;;;;;;5046734;28;20490;-80
2023/02/17 12:07:57;;;;;;;8.50;5.97;;;18.80;63.50;;;;;;5042013;28;20537;-81
2023/02/17 12:10:31;;;;;;;9.93;5.20;;;18.80;63.40;;;;;;5044538;28;20467;-81
2023/02/17 12:13:12;;;;;;;5.67;5.00;;;18.80;63.50;;;;;;5049348;28;20501;-81
2023/02/17 12:15:48;;;;;;;8.03;5.57;;;18.70;63.40;;;;;;5040821;28;20481;-81
2023/02/17 12:18:27;;;;;;;7.97;5.40;;;18.70;63.50;;;;;;5041700;28;20478;-81
2023/02/17 12:21:02;;;;;;;8.97;5.50;;;18.70;64.10;;;;;;5045472;28;20446;-81
2023/02/17 12:23:56;;;;;;;6.67;5.20;;;18.70;63.50;;;;;;5043446;28;20474;-81
2023/02/17 12:26:27;;;;;;;6.40;4.60;;;18.80;63.60;;;;;;5047362;28;20472;-81
2023/02/17 12:29:02;;;;;;;8.07;4.90;;;18.70;63.60;;;;;;5037505;28;20530;-81
2023/02/17 12:31:51;;;;;;;5.97;4.53;;;18.80;63.60;;;;;;5040995;28;20824;-79
2023/02/17 12:34:21;;;;;;;4.90;4.13;;;18.80;63.40;;;;;;5043219;28;20460;-80
2023/02/17 12:36:52;;;;;;;5.43;3.90;;;18.70;63.40;;;;;;5044746;28;20573;-81
2023/02/17 12:39:22;;;;;;;8.27;4.60;;;18.80;63.60;;;;;;5039703;28;20457;-81
2023/02/17 12:41:53;;;;;;;6.17;4.50;;;18.80;63.50;;;;;;5040601;28;20558;-81
2023/02/17 12:44:22;;;;;;;6.37;4.30;;;18.80;63.40;;;;;;5036777;28;20475;-82
2023/02/17 12:46:51;;;;;;;4.70;4.03;;;18.80;63.50;;;;;;5036962;28;20527;-82
2023/02/17 12:49:21;;;;;;;3.90;3.47;;;18.80;63.20;;;;;;5040706;28;20462;-79
2023/02/17 12:51:52;;;;;;;5.60;4.20;;;18.90;63.30;;;;;;5041233;28;20451;-79
2023/02/17 12:54:23;;;;;;;4.23;3.83;;;18.90;63.10;;;;;;5040158;28;20465;-79
2023/02/17 12:57:06;;;;;;;6.10;3.57;;;18.90;63.10;;;;;;5041395;28;20479;-79
2023/02/17 12:59:35;;;;;;;4.37;3.10;;;18.90;62.90;;;;;;5042792;28;20482;-79
2023/02/17 13:02:05;;;;;;;7.00;3.83;;;18.90;63.00;;;;;;5043264;28;20448;-80
2023/02/17 13:04:34;;;;;;;4.10;3.43;;;19.00;63.00;;;;;;5050374;28;20458;-81
2023/02/17 13:07:33;;;;;;;4.47;3.17;;;19.00;62.90;;;;;;5045228;28;20442;-81